Weather observations for the past three days for
Atkinson Municipal Airport
Metric (Imperial)
Date Time (cdt) Wind (kph) Vis. (km) Weather Sky Cond. Temperature (ºC) Relative Humidity Wind Chill (°C) Heat Index (°C) Pressure Precipitation (cm)
Air Dwpt 6 hour altimeter (cm) sea level (mb) 1 hr 3 hr 6 hr
Max. Min.
10 16:35 N 17 16.09 Fair CLR 19 5 40% 76.56 0.0
10 16:15 N 15 16.09 Fair CLR 18 5 43% 76.56 0.0
10 15:55 N 13 9.66 Fair with Haze CLR 18 5 43% 76.53 0.0
10 15:35 NE 11 16.09 Fair CLR 19 5 40% 76.53 0.0
10 15:15 NE 15 4.02 Light Rain Haze CLR 19 4 37% 76.53 0.0
10 14:55 N 22 8.05 Light Rain Haze CLR 20 5 38% 76.53 0.0
10 14:35 NE 17 6.44 Light Rain Haze CLR 20 5 38% 76.56 0.0
10 14:15 NE 19 G 28 4.83 Light Rain Haze FEW110 20 4 35% 76.56 0.0
10 13:55 NE 19 G 26 6.44 Light Rain Haze CLR 20 5 38% 76.56 0.0
10 13:35 N 26 G 33 16.09 Fair CLR 21 4 33% 76.53 0.0
10 13:15 NE 26 G 31 16.09 A Few Clouds FEW110 21 5 35% 76.56 0.0
10 12:55 NE 22 G 28 16.09 Partly Cloudy SCT110 21 5 21.7 15.1 35% 76.56 0.0
10 12:35 NE 19 G 37 2.01 Light Rain Haze CLR 21 5 35% 76.53 0.0
10 12:15 NE 24 G 39 2.41 Light Rain Haze CLR 21 4 33% 76.5 0.0
10 11:55 NE 20 16.09 Fair CLR 21 5 35% 76.5 0.0
10 11:35 NE 17 G 33 16.09 Fair CLR 20 5 38% 76.5 0.0
10 11:15 NE 19 G 31 16.09 Partly Cloudy SCT110 19 4 37% 76.5 0.0
10 10:55 NE 26 G 41 16.09 Mostly Cloudy BKN110 19 4 37% 76.48 0.0
10 10:35 NE 26 G 39 16.09 Overcast OVC110 19 5 40% 76.45 0.0
10 10:15 NE 28 G 46 16.09 Partly Cloudy SCT110 18 4 40% 76.43 0.0
10 09:55 NE 22 G 35 16.09 Fair CLR 17 5 45% 76.43 0.0
10 09:35 NE 20 G 33 16.09 Fair CLR 17 6 49% 76.45 0.0
10 09:15 NE 17 G 35 16.09 Fair CLR 16 6 52% 76.45 0.0
10 08:55 NE 19 G 26 16.09 Fair CLR 16 6 52% 76.48 0.0
10 08:35 NE 20 G 26 16.09 Fair CLR 16 7 55% 76.43 0.0
10 08:15 NE 20 G 30 16.09 Fair CLR 16 8 59% 76.38 0.0
10 07:55 NE 22 G 35 16.09 Fair CLR 16 8 59% 76.3 0.0
10 07:35 NE 22 G 33 16.09 Fair CLR 16 9 63% 76.3 0.0
10 07:15 NE 20 G 35 16.09 Fair CLR 16 9 63% 76.28 0.0
10 06:55 NE 19 16.09 Fair CLR 15 10 18.2 14.9 72% 76.23 0.0
10 06:35 NE 19 G 28 16.09 Fair CLR 15 10 72% 76.2 0.0
10 06:15 NE 19 G 30 16.09 Fair CLR 16 10 68% 76.17 0.0
10 05:55 NE 19 G 31 16.09 Fair CLR 16 10 68% 76.17 0.0
10 05:35 NE 15 16.09 Fair CLR 16 11 72% 76.17 0.0
10 05:15 NE 15 16.09 Fair CLR 16 11 72% 76.15 0.0
10 04:55 NE 15 16.09 Fair CLR 16 11 72% 76.1 0.0
10 04:35 NE 15 16.09 Fair CLR 16 11 72% 76.1 0.0
10 04:15 NE 17 16.09 Light Drizzle CLR 17 11 68% 76.07 0.0
10 03:55 NE 15 16.09 Fair CLR 17 11 68% 76.05 0.0
10 03:35 NE 9 16.09 Fair CLR 16 12 77% 76.02 0.0
10 03:15 NE 6 16.09 Fair CLR 16 12 77% 76 0.0
10 02:55 NE 9 16.09 Fair CLR 16 13 83% 76 0.0
10 02:35 N 2 16.09 Fair CLR 16 13 83% 76.02 0.0
10 02:15 NE 4 16.09 Fair CLR 17 12 73% 76 0.0
10 01:55 N 6 16.09 Fair CLR 18 12 68% 76 0.0
10 01:35 N 6 16.09 Fair CLR 17 13 77% 76 0.0
10 01:15 E 6 16.09 Fair CLR 17 14 83% 75.97 0.0
10 00:55 NE 4 16.09 Fair CLR 18 12 25.3 15.8 68% 75.95 0.0
10 00:35 NE 4 16.09 Fair CLR 18 13 73% 75.97 0.0
10 00:15 Vrbl 4 16.09 Fair CLR 18 13 73% 75.97 0.0
09 23:55 E 2 16.09 Mostly Cloudy BKN120 17 14 83% 75.95 0.0
09 23:35 NW 2 16.09 Mostly Cloudy BKN120 17 14 83% 75.97 0.0
09 23:15 Calm 16.09 Partly Cloudy SCT100 17 14 83% 75.95 0.0
09 22:55 NW 2 16.09 Fair CLR 17 14 83% 75.95 0.0
09 22:35 SW 2 16.09 Fair CLR 18 13 73% 75.92 0.0
09 22:15 Calm 16.09 Fair CLR 18 12 68% 75.9 0.0
09 21:55 S 2 2.82 Fair with Haze CLR 19 12 64% 75.87 0.0
09 21:35 S 6 16.09 Fair CLR 19 11 60% 75.84 0.0
09 21:15 SW 7 16.09 Fair CLR 20 11 56% 75.82 0.0
09 20:55 S 7 16.09 Fair CLR 19 11 60% 75.77 0.0
09 20:35 S 9 16.09 Fair CLR 20 12 60% 75.74 0.0
09 20:15 S 9 16.09 Fair CLR 20 12 60% 75.72 0.0
09 19:55 S 11 16.09 Fair CLR 22 12 53% 75.69 0.0
09 19:35 S 9 16.09 Fair CLR 23 14 57% 75.69 0.0
09 19:15 S 11 16.09 Fair CLR 24 14 54% 25 75.69 0.0
09 18:55 S 9 16.09 Fair CLR 25 13 28.8 24.4 47% 26 75.69 0.0
09 18:35 S 15 16.09 Fair CLR 26 12 42% 26 75.69 0.0
09 18:15 S 17 16.09 Fair CLR 26 11 39% 26 75.69 0.0
09 17:55 S 11 16.09 Fair CLR 27 12 39% 27 75.69 0.0
09 17:35 S 15 16.09 Fair CLR 27 11 37% 27 75.69 0.0
09 17:15 S 15 16.09 Fair CLR 28 10 32% 27 75.69 0.0
09 16:55 SW 13 16.09 Fair CLR 28 10 32% 27 75.69 0.0
09 16:35 Vrbl 7 16.09 Fair CLR 28 9 30% 27 75.69 0.0
09 16:15 W 13 16.09 Fair CLR 28 10 32% 27 75.69 0.0
09 15:55 SW 9 16.09 Fair CLR 28 12 37% 27 75.72 0.0
09 15:35 Vrbl 11 16.09 Fair CLR 28 10 32% 27 75.74 0.0
09 15:15 Vrbl 11 16.09 Fair CLR 28 10 32% 27 75.74 0.0
09 14:55 W 13 16.09 Fair CLR 28 9 30% 27 75.77 0.0
09 14:35 SW 13 16.09 Fair CLR 28 9 30% 27 75.79 0.0
09 14:15 SW 13 16.09 Fair CLR 28 8 28% 27 75.79 0.0
09 13:55 W 13 16.09 Fair CLR 28 8 28% 27 75.79 0.0
09 13:35 W 13 16.09 Fair CLR 27 6 26% 26 75.79 0.0
09 13:15 Vrbl 9 16.09 Fair CLR 27 8 30% 26 75.79 0.0
09 12:55 Vrbl 7 16.09 Fair CLR 27 10 26.7 10.7 34% 27 75.79 0.0
09 12:35 Vrbl 9 16.09 Fair CLR 26 11 39% 26 75.82 0.0
09 12:15 W 15 16.09 Fair CLR 26 11 39% 26 75.84 0.0
09 11:55 Vrbl 7 16.09 Fair CLR 26 11 39% 26 75.84 0.0
09 11:35 Vrbl 7 16.09 Fair CLR 25 11 42% 26 75.84 0.0
09 11:15 W 9 16.09 Fair CLR 24 13 50% 25 75.84 0.0
09 10:55 Vrbl 9 16.09 Fair CLR 23 13 53% 75.84 0.0
09 10:35 W 9 16.09 Fair CLR 23 14 57% 75.84 0.0
09 10:15 SW 9 16.09 Fair CLR 22 14 61% 75.84 0.0
09 09:55 SW 9 16.09 Fair CLR 21 16 73% 75.84 0.0
09 09:35 SW 9 16.09 Fair CLR 20 16 78% 75.84 0.0
09 09:15 W 6 16.09 Fair CLR 18 17 94% 75.84 0.0
09 08:55 Vrbl 7 16.09 Fair CLR 16 16 100% 75.84 0.0
09 08:35 Vrbl 6 14.48 Partly Cloudy SCT001 15 15 100% 75.82 0.0
09 08:15 SW 6 2.01 Light Drizzle Fog/Mist OVC001 14 14 100% 75.82 0.0
09 07:55 SW 7 0.40 Drizzle Fog OVC001 13 13 100% 75.82 0.0
09 07:35 S 6 0.24 Fog OVC001 12 12 100% 75.79 0.0
09 07:15 S 6 0.24 Fog OVC001 11 11 100% 75.79 0.0
09 06:55 S 7 0.24 Fog OVC001 11 11 12.4 8.2 100% 75.77 0.0
09 06:35 S 4 0.24 Fog OVC001 10 10 100% 75.77 0.0
09 06:15 S 6 0.24 Fog OVC001 10 10 100% 75.77 0.0
09 05:55 S 4 0.24 Fog VV000 10 10 100% 75.74 0.0
09 05:35 SW 7 0.24 Fog VV000 10 10 100% 9 75.74 0.0
09 05:15 S 2 0.24 Fog VV000 10 10 100% 75.74 0.0
09 04:55 S 6 2.01 Fog/Mist CLR 11 11 100% 75.74 0.0
09 04:35 SW 9 4.83 Fog/Mist CLR 11 11 100% 75.77 0.0
09 04:15 S 7 2.01 Fog/Mist CLR 10 10 100% 9 75.77 0.0
09 03:55 W 6 0.24 Fog VV000 10 10 100% 75.77 0.0
09 03:35 S 6 0.40 Fog VV002 10 10 100% 75.74 0.0
09 03:15 Calm 0.24 Fog VV000 10 10 100% 75.74 0.0
09 02:55 S 2 2.01 Fog/Mist CLR 11 11 100% 75.74 0.0
09 02:35 Vrbl 2 1.21 Fog/Mist VV005 10 10 100% 75.77 0.0
09 02:15 SW 6 8.05 Fog/Mist CLR 11 11 100% 75.74 0.0
09 01:55 SW 4 0.24 Fog VV000 11 11 100% 75.77 0.0
09 01:35 Calm 0.40 Fog VV002 10 10 100% 75.77 0.0
09 01:15 SW 6 4.83 Fog/Mist CLR 11 11 100% 75.77 0.0
09 00:55 S 6 0.24 Fog VV000 12 12 19.7 10.6 100% 75.79 0.0
09 00:35 S 2 0.24 Fog VV000 11 11 100% 75.79 0.0
09 00:15 SW 6 1.61 Fog/Mist CLR 12 12 100% 75.79 0.0
08 23:55 S 9 0.80 Fog VV005 11 11 100% 75.79 0.0
08 23:35 Calm 6.44 Fog/Mist CLR 12 12 100% 75.77 0.0
08 23:15 N 2 14.48 Fair CLR 13 13 100% 75.79 0.0
08 22:55 N 6 16.09 Fair CLR 14 14 100% 75.79 0.0
08 22:35 N 6 16.09 Fair CLR 14 14 100% 75.79 0.0
08 22:15 NE 6 16.09 A Few Clouds FEW048 15 15 100% 75.77 0.0
08 21:55 NE 6 16.09 Mostly Cloudy BKN048 15 15 100% 75.72 0.0
08 21:35 N 6 16.09 Mostly Cloudy SCT050 BKN080 16 15 94% 75.72 0.0
08 21:15 SE 4 16.09 Mostly Cloudy BKN055 BKN080 15 15 100% 75.67 0.0
08 20:55 Vrbl 4 16.09 A Few Clouds FEW055 15 15 100% 75.67 0.0
08 20:35 Vrbl 6 16.09 Fair CLR 16 15 94% 75.62 0.0
08 20:15 Vrbl 6 16.09 Fair CLR 17 15 88% 75.59 0.0
08 19:55 Vrbl 7 G 26 16.09 Partly Cloudy SCT085 SCT120 18 15 83% 75.59 0.0
08 19:35 Vrbl 7 16.09 Overcast FEW070 BKN085 OVC110 19 15 78% 75.59 0.0
08 19:15 SW 11 16.09 Mostly Cloudy BKN110 19 15 78% 75.51 0.0
08 18:55 SW 9 16.09 Light Rain BKN110 19 15 25.1 19.2 78% 75.49 0.0
08 18:35 SW 9 16.09 A Few Clouds FEW120 20 14 69% 75.49 0.0
08 17:55 S 19 G 26 16.09 Fair CLR 21 14 64% 75.46 0.0
08 17:35 S 19 16.09 Fair CLR 22 14 61% 75.51 0.0
08 17:15 S 19 16.09 A Few Clouds FEW060 FEW070 FEW120 22 13 57% 75.54 0.0
08 16:55 SW 15 16.09 Fair CLR 22 13 57% 75.59 0.0
08 16:35 SW 17 G 30 16.09 A Few Clouds FEW070 22 13 57% 75.59 0.0
08 16:15 SW 11 16.09 Partly Cloudy SCT070 SCT110 22 14 61% 75.62 0.0
08 15:55 SW 20 16.09 A Few Clouds FEW095 23 13 53% 75.62 0.0
08 15:35 SW 17 G 28 16.09 Partly Cloudy SCT095 23 14 57% 75.62 0.0
08 15:15 SW 17 16.09 A Few Clouds FEW095 24 13 50% 25 75.62 0.0
08 14:35 SW 20 G 37 16.09 Fair CLR 24 13 50% 25 75.64 0.0
08 14:15 S 26 G 37 16.09 Fair CLR 23 13 53% 75.67 0.0
08 13:55 SW 24 G 31 16.09 Fair CLR 24 14 54% 25 75.67 0.0
08 13:35 SW 15 G 31 16.09 Fair CLR 24 14 54% 25 75.69 0.0
08 13:15 SW 22 G 33 16.09 Fair CLR 22 13 57% 75.72 0.0
08 12:35 SW 20 G 31 16.09 Fair CLR 22 14 61% 75.77 0.0
08 12:15 SW 19 16.09 Fair CLR 22 14 61% 75.79 0.0
08 11:55 SW 24 G 39 16.09 Fair CLR 21 13 60% 75.82 0.0
08 11:35 SW 24 G 33 16.09 Fair CLR 21 14 64% 75.82 0.0
08 11:15 SW 30 G 41 16.09 Fair CLR 21 13 60% 75.84 0.0
08 10:55 SW 22 G 43 16.09 Fair CLR 20 13 64% 75.87 0.0
08 10:35 SW 28 G 37 16.09 Fair CLR 20 13 64% 75.87 0.0
08 10:15 SW 20 G 35 16.09 Fair CLR 19 13 68% 75.87 0.0
08 09:55 SW 22 G 35 16.09 Fair CLR 18 12 68% 75.9 0.0
08 09:35 SW 24 G 33 16.09 Fair CLR 18 12 68% 75.92 0.0
08 09:15 SW 17 G 30 16.09 Fair CLR 16 11 72% 75.95 0.0
08 08:35 SW 20 16.09 Fair CLR 15 10 72% 75.95 0.0
08 08:15 SW 19 G 33 16.09 Fair CLR 15 10 72% 75.95 0.0
08 07:55 SW 20 16.09 Fair CLR 14 10 77% 75.95 0.0
08 07:35 SW 17 16.09 Fair CLR 13 9 77% 75.95 0.0
08 07:15 S 20 G 28 16.09 Fair CLR 13 9 77% 75.95 0.0
08 06:55 SW 11 16.09 Fair CLR 12 8 13 10 77% 75.95 0.0
08 06:35 SW 11 16.09 Fair CLR 10 8 88% 9 75.92 0.0
08 06:15 SW 9 16.09 Fair CLR 10 8 88% 9 75.9 0.0
08 05:55 S 11 16.09 Fair CLR 11 8 82% 75.87 0.0
08 05:35 S 13 16.09 Fair CLR 11 8 82% 75.87 0.0
08 05:15 S 13 16.09 Fair CLR 11 8 82% 75.87 0.0
08 04:55 S 13 16.09 Fair CLR 11 8 82% 75.87 0.0
08 04:35 S 13 16.09 Fair CLR 11 8 82% 75.87 0.0
08 04:15 S 13 16.09 Fair CLR 11 8 82% 75.87 0.0
08 03:55 S 11 16.09 Fair CLR 11 8 82% 75.87 0.0
08 03:35 S 11 16.09 Fair CLR 11 8 82% 75.9 0.0
08 03:15 S 11 16.09 Fair CLR 11 8 82% 75.9 0.0
08 02:55 S 11 16.09 Fair CLR 11 8 82% 75.92 0.0
08 02:35 S 11 16.09 Fair CLR 11 8 82% 75.95 0.0
08 02:15 S 15 16.09 A Few Clouds FEW060 12 8 77% 75.95 0.0
08 01:55 S 15 16.09 Partly Cloudy SCT060 13 8 72% 75.95 0.0
08 01:35 S 17 16.09 Partly Cloudy SCT060 13 8 72% 75.95 0.0
08 01:15 S 13 16.09 Partly Cloudy SCT060 12 8 77% 75.95 0.0
08 00:55 S 15 16.09 Mostly Cloudy BKN060 13 8 19.1 12.8 72% 75.97 0.0
08 00:35 S 15 16.09 Partly Cloudy SCT050 13 8 72% 75.97 0.0
08 00:15 S 17 16.09 Partly Cloudy SCT050 13 8 72% 75.97 0.0
07 23:55 S 15 16.09 A Few Clouds FEW050 14 8 67% 75.97 0.0
07 23:35 S 15 16.09 Partly Cloudy SCT050 14 8 67% 76 0.0
07 23:15 S 13 16.09 Mostly Cloudy BKN055 14 8 67% 76 0.0
07 22:55 S 15 16.09 Partly Cloudy SCT055 14 8 67% 76.02 0.0
07 22:35 S 15 16.09 Fair CLR 14 8 67% 76.02 0.0
07 22:15 S 15 16.09 Fair CLR 14 7 63% 76.02 0.0
07 21:55 S 15 16.09 Fair CLR 14 8 67% 76.02 0.0
07 21:35 S 13 16.09 Fair CLR 13 8 72% 76 0.0
07 21:15 S 11 16.09 Fair CLR 13 8 72% 76 0.0
07 20:55 S 11 16.09 Fair CLR 14 8 67% 76 0.0
07 20:35 S 11 16.09 Fair CLR 14 8 67% 75.97 0.0
07 20:15 S 13 16.09 Fair CLR 15 8 63% 75.97 0.0
07 19:55 S 9 16.09 Fair CLR 16 9 63% 75.97 0.0
07 19:35 S 15 16.09 Fair CLR 18 8 52% 75.97 0.0
07 19:15 S 11 16.09 Fair CLR 18 8 52% 75.95 0.0
07 18:55 S 17 G 26 16.09 Fair CLR 19 7 20.6 16.9 46% 75.95 0.0
07 18:35 SW 17 16.09 Fair CLR 20 7 43% 75.97 0.0
07 18:15 SW 15 16.09 Fair CLR 20 7 43% 75.97 0.0
07 17:55 SW 15 16.09 Fair CLR 20 7 43% 76 0.0
07 17:35 SW 20 16.09 Fair CLR 20 7 43% 76 0.0
07 17:15 SW 17 G 30 16.09 Fair CLR 20 7 43% 76.02 0.0
Date Time (cdt) Wind (kph) Vis. (km) Weather Sky Cond. Air Dwpt Max. Min. Relative Humidity Wind Chill (°C) Heat Index (°C) altimeter (cm) sea level (mb) 1 hr 3 hr 6 hr
6 hour
Temperature (ºC) Pressure Precipitation (cm)